Etusivu
METAR-TAF:

METAR-TAF

Lentoasemat :

Halmstad, Ruotsi

Leveyspiiri: 56-41N, Pituuspiiri: 012-50E, korkeus merenpinnasta: 30 m

Tämänhetkinen sää

Tämä raportti tehtiin 33 minuuttia sitten, kello 13.20 UTC
Tuuli 2 kn eri suunnista
Lämpötila 16°C
Kosteus 82%
Ilmanpaine 1010 hPa
Näkyvyys 10 km tai enemmän
heikkoa sadetta,

METAR: ESMT 131320Z AUTO VRB02KT 9999 -RA FEW051/// 16/13 Q1010

Aika: 15:53 (13:53 UTC)

Sääennuste

Tämä raportti tehtiin 23 tuntia ja 41 minuuttia sitten, kello 14.12 UTC
Ennuste voimassa 12. päivästä klo 15 UTC - 12. päivään klo 18 UTC
Tuuli 4 kn eri suunnista
Näkyvyys 10 km tai enemmän
Muutamia pilviä 3500 ft:n korkeudessa

TAF: ESMT 121412Z 1215/1218 VRB04KT 9999 FEW035

Säähavainnot ja -ennusteet yli 4000 lentoasemalta (METAR- ja TAF-raportit).

Käytössä olevat sääasemat on merkitty karttaan keltaisilla ja punaisilla pisteillä.

Aseta hiiri pisteen päälle nähdäksesi sääaseman nimen.

Klikkaa sitten nähdäksesi säähavainnot ja -ennusteet.

Kartan vaihtaminen: klikkaa mustalla rastilla varustettuja vihreitä pisteitä, niin voit zoomata sisään; viivalla varustettua vihreää pistettä, niin voit zoomata ulos tai vihreitä nuolia, niin pääset viereisille kartoille.


METAR-TAF: